TimeCST,TemperatureF,Dew PointF,Humidity,Sea Level PressureIn,VisibilityMPH,Wind Direction,Wind SpeedMPH,Gust SpeedMPH,PrecipitationIn,Events,Conditions,WindDirDegrees,DateUTC
1:53 AM,33.1,28.9,85,30.23,7.0,NNW,4.6,-,N/A,,Overcast,340,2013-01-03 07:53:00
2:53 AM,33.1,28.9,85,30.27,8.0,NW,4.6,-,N/A,,Overcast,310,2013-01-03 08:53:00
3:53 AM,33.1,28.9,85,30.26,7.0,NW,4.6,-,N/A,,Overcast,310,2013-01-03 09:53:00
4:53 AM,33.1,28.9,85,30.26,7.0,NNW,4.6,-,N/A,,Overcast,330,2013-01-03 10:53:00
5:53 AM,32.0,28.9,88,30.28,7.0,NNW,6.9,-,N/A,,Mostly Cloudy,330,2013-01-03 11:53:00
6:05 AM,32.0,28.4,87,30.27,6.0,NNW,8.1,-,N/A,,Partly Cloudy,330,2013-01-03 12:05:00
6:53 AM,30.9,28.0,89,30.30,6.0,NNW,5.8,-,N/A,,Clear,340,2013-01-03 12:53:00
7:53 AM,30.9,28.0,89,30.31,4.0,NNW,4.6,-,N/A,,Clear,340,2013-01-03 13:53:00
8:53 AM,33.1,28.9,85,30.33,5.0,NNW,8.1,-,N/A,,Clear,340,2013-01-03 14:53:00
9:53 AM,34.0,28.0,79,30.35,6.0,North,8.1,-,N/A,,Haze,350,2013-01-03 15:53:00
10:53 AM,34.0,28.0,79,30.35,6.0,North,8.1,-,N/A,,Haze,350,2013-01-03 16:53:00
11:53 AM,39.0,28.9,67,30.33,8.0,NNE,8.1,-,N/A,,Clear,20,2013-01-03 17:53:00
12:53 PM,42.1,28.0,58,30.31,10.0,North,5.8,-,N/A,,Clear,360,2013-01-03 18:53:00
1:53 PM,43.0,27.0,53,30.31,10.0,NNW,5.8,-,N/A,,Clear,340,2013-01-03 19:53:00
2:53 PM,44.1,26.1,49,30.32,10.0,North,6.9,-,N/A,,Clear,350,2013-01-03 20:53:00
3:53 PM,44.1,26.1,49,30.33,10.0,NNW,8.1,-,N/A,,Clear,330,2013-01-03 21:53:00
4:53 PM,41.0,26.1,55,30.35,10.0,NNE,3.5,-,N/A,,Clear,30,2013-01-03 22:53:00
5:53 PM,35.1,27.0,72,30.35,10.0,Calm,Calm,-,N/A,,Clear,0,2013-01-03 23:53:00
6:53 PM,32.0,25.0,75,30.37,10.0,Calm,Calm,-,N/A,,Clear,0,2013-01-04 00:53:00
7:53 PM,30.9,26.1,82,30.39,10.0,Calm,Calm,-,N/A,,Clear,0,2013-01-04 01:53:00
8:53 PM,32.0,25.0,75,30.41,10.0,Calm,Calm,-,N/A,,Clear,0,2013-01-04 02:53:00
9:53 PM,28.9,26.1,89,30.41,10.0,North,4.6,-,N/A,,Clear,10,2013-01-04 03:53:00
10:53 PM,30.0,26.1,85,30.42,10.0,North,6.9,-,N/A,,Clear,10,2013-01-04 04:53:00
11:53 PM,34.0,23.0,64,30.39,10.0,NNE,6.9,-,N/A,,Clear,20,2013-01-04 05:53:00